createdAt,value
2019-03-17T00:04:07.653Z,99713.91
2019-03-17T00:06:34.669Z,99702.15
2019-03-17T00:09:01.591Z,99700.27
2019-03-17T00:11:28.472Z,99711.07
2019-03-17T00:13:55.199Z,99706.19
2019-03-17T00:16:22.070Z,99707.42
2019-03-17T00:18:48.928Z,99698.09
2019-03-17T00:21:15.669Z,99696.84
2019-03-17T00:23:42.393Z,99695.84
2019-03-17T00:26:09.547Z,99695.25
2019-03-17T00:28:36.289Z,99685.86
2019-03-17T00:31:03.398Z,99679.52
2019-03-17T00:33:30.366Z,99673.45
2019-03-17T00:35:57.387Z,99671.42
2019-03-17T00:38:24.133Z,99672.73
2019-03-17T00:40:51.309Z,99667.48
2019-03-17T00:43:17.956Z,99661.16
2019-03-17T00:45:44.709Z,99658.98
2019-03-17T00:48:11.648Z,99655.30
2019-03-17T00:50:38.448Z,99640.55
2019-03-17T00:53:05.179Z,99646.28
2019-03-17T00:55:31.976Z,99639.09
2019-03-17T00:57:59.731Z,99635.52
2019-03-17T01:01:08.554Z,99629.61
2019-03-17T01:03:35.287Z,99628.92
2019-03-17T01:06:02.246Z,99620.43
2019-03-17T01:08:29.190Z,99619.08
2019-03-17T01:10:56.214Z,99622.73
2019-03-17T01:13:23.163Z,99610.33
2019-03-17T01:15:50.018Z,99604.23
2019-03-17T01:18:16.866Z,99609.30
2019-03-17T01:20:43.604Z,99605.02
2019-03-17T01:23:10.742Z,99599.53
2019-03-17T01:25:37.362Z,99595.06
2019-03-17T01:28:04.193Z,99591.13
2019-03-17T01:30:31.027Z,99588.83
2019-03-17T01:32:57.754Z,99590.09
2019-03-17T01:35:25.045Z,99585.20
2019-03-17T01:37:52.190Z,99588.46
2019-03-17T01:40:19.037Z,99574.81
2019-03-17T01:42:45.774Z,99583.03
2019-03-17T01:45:12.936Z,99577.88
2019-03-17T01:47:39.576Z,99578.73
2019-03-17T01:50:27.991Z,99580.23
2019-03-17T01:53:07.759Z,99571.85
2019-03-17T01:55:34.865Z,99574.48
2019-03-17T01:58:01.911Z,99572.81
2019-03-17T02:00:28.988Z,99560.88
2019-03-17T02:02:56.152Z,99568.30
2019-03-17T02:05:23.225Z,99567.92
2019-03-17T02:07:50.300Z,99557.04
2019-03-17T02:10:17.461Z,99552.00
2019-03-17T02:12:44.563Z,99558.94
2019-03-17T02:15:11.696Z,99554.22
2019-03-17T02:17:39.133Z,99557.34
2019-03-17T02:20:06.413Z,99550.70
2019-03-17T02:22:33.510Z,99540.58
2019-03-17T02:25:00.625Z,99545.50
2019-03-17T02:27:27.693Z,99552.63
2019-03-17T02:29:54.970Z,99552.56
2019-03-17T02:32:22.111Z,99542.21
2019-03-17T02:34:49.374Z,99537.27
2019-03-17T02:37:16.426Z,99538.03
2019-03-17T02:39:43.646Z,99537.67
2019-03-17T02:42:10.757Z,99533.70
2019-03-17T02:44:38.135Z,99536.37
2019-03-17T02:47:05.289Z,99530.81
2019-03-17T02:49:32.382Z,99529.50
2019-03-17T02:51:59.888Z,99532.12
2019-03-17T02:54:39.324Z,99522.55
2019-03-17T02:57:06.063Z,99527.19
2019-03-17T02:59:32.694Z,99529.91
2019-03-17T03:01:59.363Z,99516.65
2019-03-17T03:04:26.139Z,99518.52
2019-03-17T03:06:52.950Z,99514.68
2019-03-17T03:09:19.742Z,99512.28
2019-03-17T03:11:46.476Z,99504.72
2019-03-17T03:14:13.215Z,99501.25
2019-03-17T03:16:39.904Z,99493.48
2019-03-17T03:19:06.924Z,99497.69
2019-03-17T03:21:33.660Z,99489.70
2019-03-17T03:24:00.436Z,99495.75
2019-03-17T03:26:27.160Z,99486.39
2019-03-17T03:28:53.989Z,99493.86
2019-03-17T03:31:20.771Z,99483.27
2019-03-17T03:33:48.338Z,99477.57
2019-03-17T03:36:15.075Z,99487.20
2019-03-17T03:38:42.250Z,99478.98
2019-03-17T03:41:08.984Z,99483.82
2019-03-17T03:43:35.737Z,99480.25
2019-03-17T03:46:02.685Z,99495.30
2019-03-17T03:48:29.425Z,99480.95
2019-03-17T03:50:56.172Z,99477.98
2019-03-17T03:53:23.047Z,99478.30
2019-03-17T03:55:52.666Z,99471.85
2019-03-17T03:58:19.394Z,99472.35
2019-03-17T04:00:46.267Z,99468.37
2019-03-17T04:03:13.146Z,99456.58
2019-03-17T04:05:39.870Z,99454.19
2019-03-17T04:08:06.674Z,99448.77
2019-03-17T04:10:33.406Z,99457.94
2019-03-17T04:13:00.149Z,99457.23
2019-03-17T04:15:27.275Z,99455.91
2019-03-17T04:17:54.013Z,99446.59
2019-03-17T04:20:20.762Z,99445.03
2019-03-17T04:22:47.567Z,99440.64
2019-03-17T04:25:16.406Z,99451.39
2019-03-17T04:27:43.127Z,99444.20
2019-03-17T04:30:09.974Z,99435.66
2019-03-17T04:35:17.942Z,99424.92
2019-03-17T04:37:45.215Z,99421.13
2019-03-17T04:40:12.795Z,99413.77
2019-03-17T04:42:39.976Z,99414.05
2019-03-17T04:45:07.037Z,99414.36
2019-03-17T04:47:34.105Z,99420.77
2019-03-17T04:50:01.718Z,99414.98
2019-03-17T04:52:47.962Z,99420.62
2019-03-17T04:55:14.771Z,99412.08
2019-03-17T04:57:41.837Z,99411.84
2019-03-17T05:00:08.942Z,99406.37
2019-03-17T05:02:35.813Z,99401.69
2019-03-17T05:05:02.725Z,99393.42
2019-03-17T05:07:29.578Z,99397.03
2019-03-17T05:09:56.564Z,99397.38
2019-03-17T05:12:23.283Z,99394.52
2019-03-17T05:14:50.297Z,99398.19
2019-03-17T05:17:17.035Z,99401.48
2019-03-17T05:19:43.804Z,99401.88
2019-03-17T05:22:10.440Z,99402.16
2019-03-17T05:24:37.226Z,99387.68
2019-03-17T05:27:03.959Z,99389.13
2019-03-17T05:29:30.799Z,99384.29
2019-03-17T05:31:57.600Z,99379.47
2019-03-17T05:34:24.460Z,99379.63
2019-03-17T05:36:51.216Z,99376.64
2019-03-17T05:39:18.064Z,99373.48
2019-03-17T05:41:45.363Z,99374.79
2019-03-17T05:44:12.111Z,99372.30
2019-03-17T05:46:38.919Z,99375.84
2019-03-17T05:49:05.767Z,99372.81
2019-03-17T05:51:33.118Z,99373.38
2019-03-17T05:53:59.898Z,99366.02
2019-03-17T05:56:26.648Z,99363.28
2019-03-17T05:58:53.528Z,99365.75
2019-03-17T06:01:20.332Z,99367.92
2019-03-17T06:03:49.616Z,99363.80
2019-03-17T06:06:16.800Z,99354.41
2019-03-17T06:08:43.806Z,99361.41
2019-03-17T06:11:10.563Z,99360.40
2019-03-17T06:13:37.833Z,99364.48
2019-03-17T06:16:05.379Z,99367.16
2019-03-17T06:18:32.167Z,99370.48
2019-03-17T06:20:58.916Z,99358.13
2019-03-17T06:23:25.768Z,99361.47
2019-03-17T06:25:54.068Z,99361.92
2019-03-17T06:28:22.287Z,99359.55
2019-03-17T06:30:49.206Z,99356.78
2019-03-17T06:33:16.673Z,99358.34
2019-03-17T06:35:43.630Z,99364.59
2019-03-17T06:38:10.719Z,99369.55
2019-03-17T06:40:37.554Z,99380.54
2019-03-17T06:43:05.056Z,99369.38
2019-03-17T06:45:31.995Z,99373.38
2019-03-17T06:47:59.343Z,99386.74
2019-03-17T06:50:26.250Z,99383.20
2019-03-17T06:52:53.873Z,99378.19
2019-03-17T06:55:21.221Z,99379.59
2019-03-17T06:57:47.962Z,99380.90
2019-03-17T07:00:15.504Z,99375.41
2019-03-17T07:02:43.380Z,99367.55
2019-03-17T07:05:10.286Z,99370.19
2019-03-17T07:07:43.866Z,99375.19
2019-03-17T07:10:06.516Z,99377.23
2019-03-17T07:12:33.481Z,99365.75
2019-03-17T07:15:00.963Z,99366.39
2019-03-17T07:17:27.602Z,99363.38
2019-03-17T07:19:54.356Z,99359.77
2019-03-17T07:22:21.507Z,99358.34
2019-03-17T07:24:48.159Z,99359.38
2019-03-17T07:27:14.886Z,99358.92
2019-03-17T07:29:41.822Z,99366.55
2019-03-17T07:32:08.446Z,99365.55
2019-03-17T07:34:35.466Z,99366.92
2019-03-17T07:37:02.350Z,99360.29
2019-03-17T07:39:29.226Z,99353.66
2019-03-17T07:41:56.185Z,99356.62
2019-03-17T07:44:22.879Z,99361.82
2019-03-17T07:46:49.728Z,99368.45
2019-03-17T07:49:17.209Z,99356.30
2019-03-17T07:51:44.184Z,99344.91
2019-03-17T07:54:11.477Z,99348.62
2019-03-17T07:56:38.216Z,99355.95
2019-03-17T07:59:05.135Z,99361.27
2019-03-17T08:01:32.081Z,99353.13
2019-03-17T08:03:58.833Z,99353.23
2019-03-17T08:06:25.735Z,99349.25
2019-03-17T08:08:52.474Z,99349.87
2019-03-17T08:11:19.228Z,99349.92
2019-03-17T08:13:46.239Z,99356.67
2019-03-17T08:16:12.973Z,99357.80
2019-03-17T08:18:39.778Z,99352.94
2019-03-17T08:21:06.553Z,99357.69
2019-03-17T08:23:33.285Z,99357.30
2019-03-17T08:26:00.269Z,99354.63
2019-03-17T08:28:27.129Z,99359.80
2019-03-17T08:30:53.878Z,99358.70
2019-03-17T08:33:20.714Z,99354.28
2019-03-17T08:35:47.408Z,99362.66
2019-03-17T08:38:21.780Z,99366.91
2019-03-17T08:40:42.829Z,99357.62
2019-03-17T08:43:09.980Z,99358.16
2019-03-17T08:45:36.979Z,99360.18
2019-03-17T08:48:03.723Z,99357.58
2019-03-17T08:50:30.567Z,99372.02
2019-03-17T08:52:57.201Z,99372.14
2019-03-17T08:55:23.935Z,99367.71
2019-03-17T08:57:50.727Z,99371.48
2019-03-17T09:00:17.464Z,99364.12
2019-03-17T09:02:44.899Z,99366.33
2019-03-17T09:05:11.830Z,99373.34
2019-03-17T09:07:39.006Z,99364.27
2019-03-17T09:10:07.051Z,99366.36
2019-03-17T09:12:33.954Z,99372.06
2019-03-17T09:15:00.773Z,99367.11
2019-03-17T09:17:27.615Z,99363.90
2019-03-17T09:19:54.931Z,99362.71
2019-03-17T09:22:21.675Z,99362.48
2019-03-17T09:24:48.301Z,99358.52
2019-03-17T09:27:15.155Z,99362.92
2019-03-17T09:29:41.889Z,99365.42
2019-03-17T09:32:08.625Z,99355.39
2019-03-17T09:34:35.378Z,99354.75
2019-03-17T09:37:02.110Z,99357.45
2019-03-17T09:39:28.844Z,99363.58
2019-03-17T09:41:55.718Z,99361.80
2019-03-17T09:44:22.459Z,99347.84
2019-03-17T09:46:49.118Z,99351.69
2019-03-17T09:49:15.908Z,99360.53
2019-03-17T09:51:42.648Z,99346.88
2019-03-17T09:54:09.391Z,99353.84
2019-03-17T09:56:36.519Z,99351.23
2019-03-17T09:59:03.273Z,99355.79
2019-03-17T10:01:30.049Z,99356.20
2019-03-17T10:03:57.093Z,99358.59
2019-03-17T10:06:24.110Z,99356.39
2019-03-17T10:08:59.813Z,99363.23
2019-03-17T10:11:20.169Z,99355.59
2019-03-17T10:13:47.830Z,99357.44
2019-03-17T10:16:14.919Z,99346.70
2019-03-17T10:18:42.081Z,99357.53
2019-03-17T10:21:09.611Z,99351.12
2019-03-17T10:23:36.696Z,99358.92
2019-03-17T10:26:03.934Z,99356.98
2019-03-17T10:28:31.041Z,99371.09
2019-03-17T10:30:58.084Z,99371.83
2019-03-17T10:33:25.274Z,99362.21
2019-03-17T10:35:52.488Z,99363.33
2019-03-17T10:38:19.962Z,99380.75
2019-03-17T10:40:47.142Z,99368.25
2019-03-17T10:43:14.213Z,99370.72
2019-03-17T10:45:41.273Z,99373.53
2019-03-17T10:48:08.443Z,99375.37
2019-03-17T10:50:35.511Z,99365.78
2019-03-17T10:53:02.855Z,99374.48
2019-03-17T10:55:30.007Z,99378.10
2019-03-17T10:57:57.077Z,99384.14
2019-03-17T11:00:24.272Z,99370.52
2019-03-17T11:02:51.482Z,99371.44
2019-03-17T11:05:18.651Z,99370.23
2019-03-17T11:07:46.263Z,99367.78
2019-03-17T11:10:13.508Z,99370.00
2019-03-17T11:12:40.581Z,99375.08
2019-03-17T11:15:09.465Z,99380.14
2019-03-17T11:17:36.639Z,99378.31
2019-03-17T11:20:04.959Z,99383.80
2019-03-17T11:22:32.036Z,99380.18
2019-03-17T11:24:59.738Z,99378.36
2019-03-17T11:27:26.800Z,99388.91
2019-03-17T11:29:53.896Z,99381.44
2019-03-17T11:32:21.017Z,99382.18
2019-03-17T11:34:48.277Z,99375.11
2019-03-17T11:37:15.372Z,99375.50
2019-03-17T11:39:42.577Z,99376.19
2019-03-17T11:42:09.641Z,99379.72
2019-03-17T11:44:36.728Z,99374.84
2019-03-17T11:47:04.312Z,99381.67
2019-03-17T11:49:31.411Z,99379.44
2019-03-17T11:51:58.519Z,99381.65
2019-03-17T11:54:25.718Z,99379.44
2019-03-17T11:56:53.417Z,99385.72
2019-03-17T11:59:21.408Z,99389.99
2019-03-17T12:01:48.986Z,99390.02
2019-03-17T12:04:16.091Z,99385.91
2019-03-17T12:06:43.231Z,99391.61
2019-03-17T12:09:10.778Z,99392.07
2019-03-17T12:11:37.930Z,99379.39
2019-03-17T12:14:05.991Z,99380.09
2019-03-17T12:16:33.331Z,99377.27
2019-03-17T12:19:00.836Z,99372.30
2019-03-17T12:21:27.923Z,99368.95
2019-03-17T12:23:55.226Z,99380.40
2019-03-17T12:29:19.237Z,99376.13
2019-03-17T12:31:46.560Z,99382.92
2019-03-17T12:34:13.289Z,99387.59
2019-03-17T12:36:40.479Z,99389.70
2019-03-17T12:39:07.178Z,99387.62
2019-03-17T12:41:34.254Z,99387.70
2019-03-17T12:44:01.630Z,99386.87
2019-03-17T12:46:28.631Z,99374.06
2019-03-17T12:48:55.414Z,99352.75
2019-03-17T12:51:22.216Z,99358.85
2019-03-17T12:53:48.841Z,99363.79
2019-03-17T12:56:15.588Z,99369.46
2019-03-17T12:58:42.284Z,99366.51
2019-03-17T13:01:09.390Z,99368.13
2019-03-17T13:03:36.138Z,99366.54
2019-03-17T13:06:03.021Z,99378.67
2019-03-17T13:08:42.427Z,99373.26
2019-03-17T13:11:09.784Z,99368.97
2019-03-17T13:13:36.413Z,99385.39
2019-03-17T13:16:03.141Z,99457.70
2019-03-17T13:18:29.888Z,99512.17
2019-03-17T13:20:56.652Z,99499.42
2019-03-17T13:23:23.687Z,99500.67
2019-03-17T13:25:50.756Z,99510.22
2019-03-17T13:28:17.514Z,99513.87
2019-03-17T13:31:04.095Z,99514.76
2019-03-17T13:33:31.139Z,99523.00
2019-03-17T13:35:58.646Z,99519.98
2019-03-17T13:38:25.731Z,99524.72
2019-03-17T13:40:52.772Z,99533.23
2019-03-17T13:43:20.297Z,99523.90
2019-03-17T13:45:47.486Z,99543.57
2019-03-17T13:48:14.545Z,99538.09
2019-03-17T13:50:41.590Z,99552.59
2019-03-17T13:53:08.722Z,99556.95
2019-03-17T13:55:35.743Z,99557.33
2019-03-17T13:58:02.819Z,99560.35
2019-03-17T14:00:29.918Z,99561.48
2019-03-17T14:02:57.008Z,99553.59
2019-03-17T14:05:24.330Z,99556.20
2019-03-17T14:07:51.464Z,99565.81
2019-03-17T14:10:40.265Z,99577.55
2019-03-17T14:13:00.457Z,99583.90
2019-03-17T14:15:27.223Z,99580.05
2019-03-17T14:17:54.455Z,99573.44
2019-03-17T14:20:21.347Z,99562.89
2019-03-17T14:22:48.089Z,99553.95
2019-03-17T14:25:17.631Z,99553.50
2019-03-17T14:27:44.530Z,99563.89
2019-03-17T14:30:31.903Z,99557.19
2019-03-17T14:32:58.781Z,99554.48
2019-03-17T14:35:25.622Z,99560.55
2019-03-17T14:37:52.402Z,99553.39
2019-03-17T14:40:19.485Z,99554.66
2019-03-17T14:42:46.355Z,99563.70
2019-03-17T14:45:13.898Z,99571.55
2019-03-17T14:47:40.838Z,99582.64
2019-03-17T14:50:09.611Z,99592.58
2019-03-17T14:52:36.361Z,99600.84
2019-03-17T14:55:03.490Z,99593.14
2019-03-17T14:57:30.336Z,99594.86
2019-03-17T14:59:57.333Z,99589.67
2019-03-17T15:02:24.392Z,99599.53
2019-03-17T15:04:51.595Z,99613.44
2019-03-17T15:07:18.343Z,99628.77
2019-03-17T15:09:45.130Z,99632.37
2019-03-17T15:12:25.199Z,99639.66
2019-03-17T15:14:52.354Z,99642.56
2019-03-17T15:17:19.501Z,99643.80
2019-03-17T15:19:46.371Z,99632.92
2019-03-17T15:22:13.617Z,99641.55
2019-03-17T15:24:40.723Z,99633.73
2019-03-17T15:27:07.470Z,99638.28
2019-03-17T15:29:34.281Z,99650.70
2019-03-17T15:32:01.070Z,99651.06
2019-03-17T15:34:28.033Z,99648.94
2019-03-17T15:36:54.988Z,99652.99
2019-03-17T15:39:21.739Z,99647.15
2019-03-17T15:41:48.476Z,99654.52
2019-03-17T15:44:15.423Z,99652.86
2019-03-17T15:46:42.153Z,99633.42
2019-03-17T15:49:08.888Z,99622.44
2019-03-17T15:51:35.757Z,99625.73
2019-03-17T15:54:02.629Z,99631.79
2019-03-17T15:56:49.258Z,99636.48
2019-03-17T15:59:16.368Z,99633.09
2019-03-17T16:01:43.449Z,99626.95
2019-03-17T16:04:10.546Z,99626.50
2019-03-17T16:06:37.643Z,99614.58
2019-03-17T16:09:07.114Z,99617.98
2019-03-17T16:11:34.484Z,99619.61
2019-03-17T16:14:01.975Z,99632.84
2019-03-17T16:16:29.079Z,99640.05
2019-03-17T16:18:56.684Z,99644.20
2019-03-17T16:21:24.145Z,99655.05
2019-03-17T16:23:51.252Z,99667.13
2019-03-17T16:26:18.417Z,99685.30
2019-03-17T16:28:45.497Z,99674.86
2019-03-17T16:31:12.734Z,99677.72
2019-03-17T16:33:40.298Z,99665.94
2019-03-17T16:36:07.382Z,99677.84
2019-03-17T16:38:34.565Z,99683.82
2019-03-17T16:41:01.707Z,99685.73
2019-03-17T16:43:28.825Z,99689.49
2019-03-17T16:45:56.111Z,99698.05
2019-03-17T16:48:23.267Z,99701.00
2019-03-17T16:50:50.373Z,99715.00
2019-03-17T16:53:17.489Z,99706.65
2019-03-17T16:56:03.805Z,99697.69
2019-03-17T16:58:30.534Z,99696.20
2019-03-17T17:00:57.424Z,99698.66
2019-03-17T17:03:24.230Z,99695.59
2019-03-17T17:05:51.107Z,99697.69
2019-03-17T17:08:17.849Z,99699.97
2019-03-17T17:10:49.980Z,99723.77
2019-03-17T17:13:34.431Z,99723.31
2019-03-17T17:16:14.811Z,99725.45
2019-03-17T17:18:42.006Z,99729.97
2019-03-17T17:21:09.286Z,99737.42
2019-03-17T17:23:36.499Z,99739.96
2019-03-17T17:26:03.605Z,99743.97
2019-03-17T17:28:31.055Z,99750.20
2019-03-17T17:30:59.129Z,99745.35
2019-03-17T17:33:27.934Z,99754.17
2019-03-17T17:35:56.544Z,99761.16
2019-03-17T17:38:23.693Z,99774.81
2019-03-17T17:40:52.118Z,99762.37
2019-03-17T17:43:19.194Z,99766.89
2019-03-17T17:45:46.389Z,99769.70
2019-03-17T17:48:13.494Z,99781.18
2019-03-17T17:51:00.088Z,99800.92
2019-03-17T17:53:27.198Z,99812.42
2019-03-17T17:55:54.293Z,99810.75
2019-03-17T17:58:21.834Z,99815.69
2019-03-17T18:00:49.247Z,99825.44
2019-03-17T18:03:16.763Z,99832.17
2019-03-17T18:05:43.918Z,99842.64
2019-03-17T18:08:11.019Z,99848.66
2019-03-17T18:10:38.091Z,99835.23
2019-03-17T18:13:05.245Z,99827.09
2019-03-17T18:15:32.479Z,99846.86
2019-03-17T18:17:59.946Z,99867.59
2019-03-17T18:20:27.074Z,99872.03
2019-03-17T18:22:54.867Z,99870.37
2019-03-17T18:25:21.963Z,99865.33
2019-03-17T18:27:49.181Z,99880.98
2019-03-17T18:30:16.286Z,99884.97
2019-03-17T18:32:43.683Z,99856.67
2019-03-17T18:35:11.305Z,99853.94
2019-03-17T18:37:38.475Z,99858.97
2019-03-17T18:40:06.245Z,99890.11
2019-03-17T18:42:33.600Z,99915.04
2019-03-17T18:45:01.092Z,99918.36
2019-03-17T18:47:28.174Z,99879.53
2019-03-17T18:49:55.394Z,99881.55
2019-03-17T18:52:22.500Z,99877.67
2019-03-17T18:54:49.591Z,99902.64
2019-03-17T18:57:17.163Z,99916.94
2019-03-17T18:59:44.676Z,99926.52
2019-03-17T19:02:11.989Z,99923.21
2019-03-17T19:04:39.585Z,99935.13
2019-03-17T19:07:06.683Z,99940.82
2019-03-17T19:09:33.770Z,99958.41
2019-03-17T19:12:01.651Z,99976.66
2019-03-17T19:14:29.223Z,99976.24
2019-03-17T19:16:56.313Z,99971.02
2019-03-17T19:19:23.607Z,99965.50
2019-03-17T19:21:50.693Z,99968.95
2019-03-17T19:24:17.782Z,99973.71
2019-03-17T19:26:44.933Z,99972.72
2019-03-17T19:29:12.056Z,99974.64
2019-03-17T19:31:39.145Z,99973.02
2019-03-17T19:34:06.294Z,99966.95
2019-03-17T19:36:33.334Z,99965.60
2019-03-17T19:39:00.418Z,99947.86
2019-03-17T19:41:27.574Z,99954.83
2019-03-17T19:43:54.657Z,99959.98
2019-03-17T19:46:22.133Z,99958.38
2019-03-17T19:48:49.334Z,99961.45
2019-03-17T19:51:18.923Z,99962.95
2019-03-17T19:53:45.790Z,99965.23
2019-03-17T19:56:12.953Z,99958.73
2019-03-17T19:58:40.720Z,99962.22
2019-03-17T20:01:09.358Z,99965.08
2019-03-17T20:03:36.515Z,99962.92
2019-03-17T20:06:03.641Z,99965.10
2019-03-17T20:08:30.763Z,99969.02
2019-03-17T20:10:58.608Z,99968.73
2019-03-17T20:13:45.339Z,99967.41
2019-03-17T20:16:12.677Z,99965.70
2019-03-17T20:18:41.421Z,99983.63
2019-03-17T20:21:09.091Z,99981.88
2019-03-17T20:23:36.468Z,99968.86
2019-03-17T20:26:03.558Z,99965.86
2019-03-17T20:28:30.673Z,99984.94
2019-03-17T20:31:17.288Z,99984.52
2019-03-17T20:33:44.797Z,99991.33
2019-03-17T20:36:11.889Z,99987.58
2019-03-17T20:38:39.108Z,100002.83
2019-03-17T20:41:06.265Z,99998.97
2019-03-17T20:43:35.289Z,100007.23
2019-03-17T20:46:02.041Z,100002.46
2019-03-17T20:48:28.778Z,99998.58
2019-03-17T20:50:55.725Z,99995.00
2019-03-17T20:53:22.645Z,99996.43
2019-03-17T20:56:09.545Z,100005.38
2019-03-17T20:58:36.678Z,100006.28
2019-03-17T21:01:03.977Z,100010.70
2019-03-17T21:03:31.080Z,100028.56
2019-03-17T21:05:58.855Z,100048.96
2019-03-17T21:08:26.122Z,100052.41
2019-03-17T21:10:53.203Z,100044.20
2019-03-17T21:13:20.344Z,100046.00
2019-03-17T21:15:47.553Z,100053.34
2019-03-17T21:18:14.632Z,100058.09
2019-03-17T21:20:41.789Z,100060.28
2019-03-17T21:23:08.945Z,100075.59
2019-03-17T21:25:36.035Z,100073.88
2019-03-17T21:28:03.174Z,100079.93
2019-03-17T21:30:30.319Z,100073.95
2019-03-17T21:32:57.379Z,100077.77
2019-03-17T21:35:24.567Z,100076.47
2019-03-17T21:37:51.950Z,100088.70
2019-03-17T21:40:19.031Z,100096.53
2019-03-17T21:42:46.507Z,100104.44
2019-03-17T21:45:13.967Z,100110.43
2019-03-17T21:47:41.062Z,100113.92
2019-03-17T21:50:10.355Z,100112.55
2019-03-17T21:52:37.435Z,100110.42
2019-03-17T21:55:04.532Z,100103.95
2019-03-17T21:57:31.776Z,100105.31
2019-03-17T21:59:59.319Z,100110.98
2019-03-17T22:02:26.393Z,100104.44
2019-03-17T22:04:53.547Z,100101.09
2019-03-17T22:07:20.646Z,100104.45
2019-03-17T22:09:48.625Z,100110.56
2019-03-17T22:12:15.833Z,100124.11
2019-03-17T22:14:42.974Z,100132.35
2019-03-17T22:17:10.082Z,100148.44
2019-03-17T22:19:37.235Z,100155.02
2019-03-17T22:22:04.342Z,100151.45
2019-03-17T22:24:44.387Z,100144.88
2019-03-17T22:27:11.139Z,100144.98
2019-03-17T22:29:37.768Z,100135.83
2019-03-17T22:32:04.577Z,100138.90
2019-03-17T22:34:31.339Z,100145.42
2019-03-17T22:36:58.169Z,100146.33
2019-03-17T22:39:25.506Z,100163.23
2019-03-17T22:41:52.176Z,100174.09
2019-03-17T22:44:24.170Z,100154.11
2019-03-17T22:46:47.883Z,100146.61
2019-03-17T22:49:15.314Z,100139.66
2019-03-17T22:51:42.774Z,100149.74
2019-03-17T22:54:10.335Z,100152.00
2019-03-17T22:56:37.899Z,100163.73
2019-03-17T22:59:04.981Z,100160.27
2019-03-17T23:01:32.123Z,100164.67
2019-03-17T23:03:59.674Z,100182.47
2019-03-17T23:06:27.134Z,100175.03
2019-03-17T23:08:54.779Z,100175.02
2019-03-17T23:11:22.186Z,100173.73
2019-03-17T23:13:49.283Z,100179.87
2019-03-17T23:16:16.438Z,100191.54
2019-03-17T23:18:43.898Z,100193.72
2019-03-17T23:21:11.015Z,100191.61
2019-03-17T23:23:39.598Z,100192.41
2019-03-17T23:26:07.701Z,100193.35
2019-03-17T23:28:34.791Z,100180.69
2019-03-17T23:31:21.106Z,100173.38
2019-03-17T23:33:48.103Z,100163.95
2019-03-17T23:36:15.342Z,100165.61
2019-03-17T23:38:42.134Z,100171.22
2019-03-17T23:41:08.795Z,100174.30
2019-03-17T23:43:35.531Z,100166.44
2019-03-17T23:46:02.494Z,100173.00
2019-03-17T23:48:29.253Z,100169.52
2019-03-17T23:50:55.913Z,100167.38
2019-03-17T23:53:22.720Z,100168.67
2019-03-17T23:55:49.343Z,100183.06
2019-03-17T23:58:16.066Z,100186.98
